createdAt,value
2023-05-18T00:00:44.525Z,91.60
2023-05-18T00:01:44.503Z,91.91
2023-05-18T00:02:44.544Z,91.80
2023-05-18T00:03:44.614Z,91.85
2023-05-18T00:04:44.886Z,91.85
2023-05-18T00:05:44.456Z,91.53
2023-05-18T00:06:44.448Z,91.60
2023-05-18T00:07:45.495Z,91.49
2023-05-18T00:08:44.456Z,91.95
2023-05-18T00:09:44.413Z,91.64
2023-05-18T00:10:44.392Z,91.74
2023-05-18T00:11:44.411Z,91.43
2023-05-18T00:12:44.417Z,91.53
2023-05-18T00:13:44.374Z,91.53
2023-05-18T00:14:44.354Z,91.22
2023-05-18T00:15:44.356Z,91.43
2023-05-18T00:16:44.369Z,91.16
2023-05-18T00:17:44.387Z,91.89
2023-05-18T00:18:44.317Z,91.16
2023-05-18T00:19:44.299Z,91.06
2023-05-18T00:20:44.280Z,91.16
2023-05-18T00:21:44.276Z,91.16
2023-05-18T00:22:44.257Z,90.95
2023-05-18T00:23:44.277Z,91.06
2023-05-18T00:24:44.285Z,91.16
2023-05-18T00:25:44.239Z,91.68
2023-05-18T00:26:44.216Z,91.58
2023-05-18T00:27:44.211Z,91.47
2023-05-18T00:28:44.210Z,90.95
2023-05-18T00:29:44.189Z,91.27
2023-05-18T00:30:44.183Z,91.20
2023-05-18T00:31:44.193Z,91.10
2023-05-18T00:32:44.180Z,91.10
2023-05-18T00:33:44.171Z,91.10
2023-05-18T00:34:44.126Z,91.52
2023-05-18T00:35:44.128Z,91.41
2023-05-18T00:36:44.121Z,91.72
2023-05-18T00:37:44.101Z,91.97
2023-05-18T00:38:44.126Z,91.66
2023-05-18T00:39:44.108Z,91.76
2023-05-18T00:40:44.089Z,91.55
2023-05-18T00:41:44.079Z,91.97
2023-05-18T00:42:44.064Z,92.18
2023-05-18T00:43:44.054Z,92.28
2023-05-18T00:44:44.019Z,92.28
2023-05-18T00:45:44.079Z,91.86
2023-05-18T00:46:43.994Z,92.49
2023-05-18T00:47:44.035Z,92.22
2023-05-18T00:48:44.000Z,92.18
2023-05-18T00:49:43.983Z,92.18
2023-05-18T00:50:43.974Z,92.74
2023-05-18T00:51:43.942Z,92.32
2023-05-18T00:52:43.933Z,92.63
2023-05-18T00:53:44.254Z,92.43
2023-05-18T00:54:43.912Z,92.43
2023-05-18T00:55:43.898Z,92.43
2023-05-18T00:56:43.920Z,92.43
2023-05-18T00:57:43.884Z,92.84
2023-05-18T00:58:43.855Z,92.94
2023-05-18T00:59:43.856Z,93.16
2023-05-18T01:00:43.873Z,92.43
2023-05-18T01:01:44.196Z,92.63
2023-05-18T01:02:43.854Z,92.26
2023-05-18T01:03:43.805Z,92.22
2023-05-18T01:04:43.824Z,91.91
2023-05-18T01:05:43.788Z,92.05
2023-05-18T01:06:43.930Z,91.33
2023-05-18T01:07:43.777Z,91.85
2023-05-18T01:08:43.761Z,91.74
2023-05-18T01:09:43.757Z,92.05
2023-05-18T01:10:43.733Z,91.95
2023-05-18T01:11:43.717Z,91.85
2023-05-18T01:12:43.737Z,92.36
2023-05-18T01:13:43.714Z,91.95
2023-05-18T01:14:43.693Z,91.33
2023-05-18T01:15:43.677Z,91.37
2023-05-18T01:16:43.726Z,91.78
2023-05-18T01:17:43.711Z,91.78
2023-05-18T01:18:43.765Z,92.20
2023-05-18T01:19:43.623Z,91.89
2023-05-18T01:20:43.624Z,91.89
2023-05-18T01:21:43.622Z,91.68
2023-05-18T01:22:43.594Z,91.89
2023-05-18T01:23:43.590Z,92.45
2023-05-18T01:24:43.599Z,92.10
2023-05-18T01:25:43.560Z,92.35
2023-05-18T01:26:43.554Z,92.14
2023-05-18T01:27:43.564Z,92.66
2023-05-18T01:28:43.534Z,91.93
2023-05-18T01:29:43.529Z,92.03
2023-05-18T01:30:43.551Z,92.03
2023-05-18T01:31:43.486Z,92.45
2023-05-18T01:32:43.503Z,92.24
2023-05-18T01:33:43.463Z,91.93
2023-05-18T01:34:43.466Z,92.03
2023-05-18T01:35:43.446Z,92.14
2023-05-18T01:36:43.465Z,91.97
2023-05-18T01:37:43.426Z,92.39
2023-05-18T01:38:44.405Z,92.49
2023-05-18T01:39:43.415Z,93.01
2023-05-18T01:40:43.375Z,93.33
2023-05-18T01:41:43.374Z,92.39
2023-05-18T01:42:43.392Z,92.08
2023-05-18T01:43:43.369Z,91.77
2023-05-18T01:44:43.356Z,91.91
2023-05-18T01:45:43.332Z,92.22
2023-05-18T01:46:43.475Z,91.71
2023-05-18T01:47:43.338Z,92.12
2023-05-18T01:48:43.312Z,92.54
2023-05-18T01:49:43.320Z,92.08
2023-05-18T01:50:43.282Z,92.49
2023-05-18T01:51:43.281Z,92.39
2023-05-18T01:52:43.248Z,92.49
2023-05-18T01:53:43.232Z,92.39
2023-05-18T01:54:43.218Z,92.54
2023-05-18T01:55:43.260Z,92.02
2023-05-18T01:56:43.200Z,92.02
2023-05-18T01:57:43.189Z,92.74
2023-05-18T01:58:43.173Z,92.43
2023-05-18T01:59:43.183Z,92.54
2023-05-18T02:00:43.193Z,92.58
2023-05-18T02:01:43.188Z,92.54
2023-05-18T02:02:43.303Z,92.74
2023-05-18T02:03:43.202Z,92.95
2023-05-18T02:04:43.129Z,92.54
2023-05-18T02:05:43.099Z,92.43
2023-05-18T02:06:43.117Z,92.47
2023-05-18T02:07:43.116Z,92.79
2023-05-18T02:08:43.064Z,92.54
2023-05-18T02:09:43.055Z,92.47
2023-05-18T02:10:43.058Z,92.47
2023-05-18T02:11:43.047Z,92.06
2023-05-18T02:12:43.040Z,92.16
2023-05-18T02:13:43.123Z,92.06
2023-05-18T02:14:45.506Z,92.62
2023-05-18T02:15:43.100Z,92.72
2023-05-18T02:16:43.063Z,92.52
2023-05-18T02:17:43.029Z,93.04
2023-05-18T02:18:43.004Z,92.62
2023-05-18T02:19:42.935Z,92.83
2023-05-18T02:20:42.997Z,92.62
2023-05-18T02:21:42.916Z,92.93
2023-05-18T02:22:42.921Z,93.14
2023-05-18T02:23:42.907Z,93.04
2023-05-18T02:24:42.888Z,93.14
2023-05-18T02:25:42.874Z,93.04
2023-05-18T02:26:42.860Z,92.52
2023-05-18T02:27:42.865Z,92.41
2023-05-18T02:28:42.850Z,92.52
2023-05-18T02:29:42.831Z,92.41
2023-05-18T02:30:42.818Z,92.62
2023-05-18T02:31:42.864Z,92.72
2023-05-18T02:32:42.952Z,93.04
2023-05-18T02:33:42.794Z,93.08
2023-05-18T02:34:42.790Z,93.18
2023-05-18T02:35:42.755Z,93.04
2023-05-18T02:36:42.830Z,93.29
2023-05-18T02:37:42.736Z,93.18
2023-05-18T02:38:42.754Z,92.97
2023-05-18T02:39:42.715Z,92.66
2023-05-18T02:40:42.697Z,93.29
2023-05-18T02:41:42.716Z,93.08
2023-05-18T02:42:42.668Z,92.87
2023-05-18T02:43:42.687Z,92.97
2023-05-18T02:44:42.658Z,92.91
2023-05-18T02:45:42.695Z,93.12
2023-05-18T02:46:42.651Z,92.77
2023-05-18T02:47:42.654Z,92.91
2023-05-18T02:48:42.622Z,93.54
2023-05-18T02:49:42.611Z,93.44
2023-05-18T02:50:42.579Z,93.23
2023-05-18T02:51:42.601Z,93.44
2023-05-18T02:52:42.557Z,93.54
2023-05-18T02:53:42.571Z,93.65
2023-05-18T02:54:42.550Z,93.65
2023-05-18T02:55:42.561Z,93.65
2023-05-18T02:56:42.529Z,93.54
2023-05-18T02:57:42.511Z,93.33
2023-05-18T02:58:42.513Z,93.44
2023-05-18T02:59:42.482Z,93.33
2023-05-18T03:00:42.464Z,93.85
2023-05-18T03:01:42.605Z,93.44
2023-05-18T03:02:42.505Z,93.23
2023-05-18T03:03:42.674Z,93.37
2023-05-18T03:04:42.439Z,93.06
2023-05-18T03:05:42.414Z,93.48
2023-05-18T03:06:42.398Z,93.16
2023-05-18T03:07:42.415Z,93.06
2023-05-18T03:08:42.387Z,92.85
2023-05-18T03:09:42.368Z,92.75
2023-05-18T03:10:42.373Z,93.06
2023-05-18T03:11:42.379Z,93.27
2023-05-18T03:12:42.329Z,93.90
2023-05-18T03:13:42.349Z,93.59
2023-05-18T03:14:42.310Z,93.48
2023-05-18T03:15:42.303Z,93.16
2023-05-18T03:16:42.324Z,93.27
2023-05-18T03:17:42.324Z,93.79
2023-05-18T03:18:42.304Z,93.37
2023-05-18T03:19:42.260Z,93.69
2023-05-18T03:20:42.258Z,93.69
2023-05-18T03:21:42.255Z,93.37
2023-05-18T03:22:42.219Z,93.69
2023-05-18T03:23:42.245Z,93.69
2023-05-18T03:24:42.195Z,93.69
2023-05-18T03:25:42.200Z,93.79
2023-05-18T03:26:42.188Z,93.69
2023-05-18T03:27:42.165Z,93.59
2023-05-18T03:28:42.154Z,93.27
2023-05-18T03:29:42.182Z,93.79
2023-05-18T03:30:42.152Z,93.31
2023-05-18T03:31:42.155Z,94.15
2023-05-18T03:32:42.148Z,94.10
2023-05-18T03:33:42.136Z,93.94
2023-05-18T03:34:42.096Z,93.94
2023-05-18T03:35:42.081Z,94.35
2023-05-18T03:36:42.084Z,94.04
2023-05-18T03:37:42.076Z,94.10
2023-05-18T03:38:42.085Z,94.21
2023-05-18T03:39:42.031Z,94.10
2023-05-18T03:40:42.013Z,94.42
2023-05-18T03:41:42.034Z,94.31
2023-05-18T03:42:42.043Z,94.21
2023-05-18T03:43:41.991Z,94.42
2023-05-18T03:44:41.983Z,94.31
2023-05-18T03:45:41.974Z,94.31
2023-05-18T03:46:42.112Z,93.90
2023-05-18T03:47:42.021Z,93.69
2023-05-18T03:48:41.930Z,93.90
2023-05-18T03:49:41.926Z,93.37
2023-05-18T03:50:41.900Z,93.79
2023-05-18T03:51:42.085Z,93.48
2023-05-18T03:52:41.930Z,93.69
2023-05-18T03:53:41.873Z,93.48
2023-05-18T03:54:41.855Z,93.90
2023-05-18T03:55:44.545Z,93.59
2023-05-18T03:56:41.834Z,93.69
2023-05-18T03:57:41.837Z,93.59
2023-05-18T03:58:41.835Z,93.69
2023-05-18T03:59:41.799Z,93.79
2023-05-18T04:00:41.794Z,93.69
2023-05-18T04:01:41.895Z,93.90
2023-05-18T04:02:41.845Z,94.63
2023-05-18T04:03:41.847Z,94.06
2023-05-18T04:04:41.753Z,93.85
2023-05-18T04:05:41.729Z,93.44
2023-05-18T04:06:41.729Z,93.54
2023-05-18T04:07:41.718Z,93.75
2023-05-18T04:08:41.751Z,93.23
2023-05-18T04:09:41.714Z,93.12
2023-05-18T04:10:41.685Z,93.23
2023-05-18T04:11:41.725Z,93.12
2023-05-18T04:12:41.657Z,93.44
2023-05-18T04:13:41.663Z,94.06
2023-05-18T04:14:41.660Z,93.96
2023-05-18T04:15:41.622Z,94.58
2023-05-18T04:16:41.701Z,94.06
2023-05-18T04:17:41.608Z,94.27
2023-05-18T04:18:41.762Z,94.37
2023-05-18T04:19:41.571Z,94.17
2023-05-18T04:20:41.567Z,94.27
2023-05-18T04:21:41.555Z,94.23
2023-05-18T04:22:41.543Z,94.02
2023-05-18T04:23:41.556Z,94.33
2023-05-18T04:24:41.543Z,94.02
2023-05-18T04:25:41.502Z,94.02
2023-05-18T04:26:41.510Z,94.12
2023-05-18T04:27:41.512Z,94.23
2023-05-18T04:28:41.505Z,94.12
2023-05-18T04:29:41.469Z,94.12
2023-05-18T04:30:41.456Z,94.08
2023-05-18T04:31:41.489Z,93.98
2023-05-18T04:32:41.468Z,93.91
2023-05-18T04:33:41.414Z,94.29
2023-05-18T04:34:41.429Z,94.49
2023-05-18T04:35:41.413Z,94.92
2023-05-18T04:36:41.388Z,94.92
2023-05-18T04:37:41.455Z,94.92
2023-05-18T04:38:41.372Z,94.87
2023-05-18T04:39:41.374Z,94.87
2023-05-18T04:40:41.363Z,94.87
2023-05-18T04:41:41.322Z,94.98
2023-05-18T04:42:41.337Z,94.87
2023-05-18T04:43:41.315Z,94.87
2023-05-18T04:44:41.308Z,95.56
2023-05-18T04:45:41.294Z,95.35
2023-05-18T04:46:41.333Z,95.03
2023-05-18T04:47:41.298Z,95.03
2023-05-18T04:48:41.249Z,95.20
2023-05-18T04:49:41.237Z,94.89
2023-05-18T04:50:41.256Z,94.89
2023-05-18T04:51:41.207Z,94.89
2023-05-18T04:52:41.222Z,95.09
2023-05-18T04:53:41.200Z,95.30
2023-05-18T04:54:41.182Z,95.15
2023-05-18T04:55:41.191Z,95.15
2023-05-18T04:56:41.183Z,95.05
2023-05-18T04:57:41.147Z,95.15
2023-05-18T04:58:41.149Z,95.05
2023-05-18T04:59:41.142Z,94.95
2023-05-18T05:00:41.111Z,95.01
2023-05-18T05:01:41.152Z,95.01
2023-05-18T05:02:41.157Z,95.11
2023-05-18T05:03:41.260Z,95.11
2023-05-18T05:04:41.108Z,94.65
2023-05-18T05:05:41.052Z,95.07
2023-05-18T05:06:41.060Z,94.86
2023-05-18T05:07:41.039Z,94.96
2023-05-18T05:08:41.040Z,95.03
2023-05-18T05:09:41.010Z,95.07
2023-05-18T05:10:41.014Z,95.07
2023-05-18T05:11:40.998Z,94.76
2023-05-18T05:12:41.182Z,94.82
2023-05-18T05:13:40.960Z,94.92
2023-05-18T05:14:40.965Z,95.03
2023-05-18T05:15:40.978Z,95.03
2023-05-18T05:16:40.961Z,94.88
2023-05-18T05:17:40.956Z,95.40
2023-05-18T05:18:40.914Z,95.09
2023-05-18T05:19:40.895Z,95.56
2023-05-18T05:20:40.916Z,95.36
2023-05-18T05:21:40.906Z,94.84
2023-05-18T05:22:40.969Z,94.79
2023-05-18T05:23:40.862Z,94.79
2023-05-18T05:24:40.858Z,94.89
2023-05-18T05:25:40.818Z,94.58
2023-05-18T05:26:41.001Z,95.16
2023-05-18T05:27:40.797Z,94.43
2023-05-18T05:28:40.880Z,94.12
2023-05-18T05:29:40.772Z,93.40
2023-05-18T05:30:40.763Z,93.77
2023-05-18T05:31:40.778Z,92.74
2023-05-18T05:32:41.482Z,92.01
2023-05-18T05:33:40.746Z,92.01
2023-05-18T05:34:40.734Z,92.01
2023-05-18T05:35:40.706Z,92.01
2023-05-18T05:36:40.700Z,91.97
2023-05-18T05:37:40.728Z,91.97
2023-05-18T05:38:40.680Z,91.55
2023-05-18T05:39:40.674Z,91.61
2023-05-18T05:40:40.662Z,91.72
2023-05-18T05:41:40.633Z,91.93
2023-05-18T05:42:40.658Z,91.47
2023-05-18T05:43:40.615Z,90.74
2023-05-18T05:44:40.664Z,90.23
2023-05-18T05:45:40.610Z,90.33
2023-05-18T05:46:40.629Z,90.23
2023-05-18T05:47:40.616Z,89.87
2023-05-18T05:48:40.585Z,89.15
2023-05-18T05:49:40.551Z,88.43
2023-05-18T05:50:40.539Z,88.12
2023-05-18T05:51:40.531Z,87.97
2023-05-18T05:52:40.544Z,87.87
2023-05-18T05:53:40.498Z,87.46
2023-05-18T05:54:40.510Z,88.07
2023-05-18T05:55:40.482Z,87.00
2023-05-18T05:56:40.475Z,87.21
2023-05-18T05:57:40.481Z,87.21
2023-05-18T05:58:40.447Z,87.10
2023-05-18T05:59:40.436Z,86.59
2023-05-18T06:00:40.465Z,85.52
2023-05-18T06:01:40.433Z,85.52
2023-05-18T06:02:40.618Z,86.34
2023-05-18T06:03:40.438Z,86.44
2023-05-18T06:04:40.379Z,86.03
2023-05-18T06:05:40.367Z,85.58
2023-05-18T06:06:40.355Z,85.47
2023-05-18T06:07:40.343Z,84.86
2023-05-18T06:08:40.360Z,84.96
2023-05-18T06:09:40.324Z,84.96
2023-05-18T06:10:40.315Z,84.92
2023-05-18T06:11:40.296Z,84.61
2023-05-18T06:12:40.287Z,84.92
2023-05-18T06:13:40.297Z,85.95
2023-05-18T06:14:40.264Z,86.02
2023-05-18T06:15:40.503Z,86.02
2023-05-18T06:16:40.319Z,84.67
2023-05-18T06:17:40.298Z,85.09
2023-05-18T06:18:40.308Z,84.67
2023-05-18T06:19:40.217Z,83.44
2023-05-18T06:20:40.198Z,83.19
2023-05-18T06:21:40.201Z,83.81
2023-05-18T06:22:40.225Z,81.44
2023-05-18T06:23:41.908Z,81.71
2023-05-18T06:24:40.154Z,82.02
2023-05-18T06:25:40.143Z,82.23
2023-05-18T06:26:40.132Z,82.40
2023-05-18T06:27:40.117Z,82.40
2023-05-18T06:28:40.128Z,81.95
2023-05-18T06:29:40.089Z,82.09
2023-05-18T06:30:40.080Z,81.43
2023-05-18T06:31:40.103Z,80.91
2023-05-18T06:32:40.194Z,80.91
2023-05-18T06:33:40.071Z,79.88
2023-05-18T06:34:40.063Z,80.57
2023-05-18T06:35:40.048Z,80.16
2023-05-18T06:36:40.031Z,81.15
2023-05-18T06:37:40.000Z,80.02
2023-05-18T06:38:40.031Z,81.01
2023-05-18T06:39:39.988Z,82.45
2023-05-18T06:40:39.986Z,79.84
2023-05-18T06:41:39.985Z,79.33
2023-05-18T06:42:39.988Z,79.77
2023-05-18T06:43:39.951Z,76.41
2023-05-18T06:44:39.975Z,78.08
2023-05-18T06:45:39.917Z,78.35
2023-05-18T06:46:40.021Z,79.30
2023-05-18T06:47:39.960Z,77.45
2023-05-18T06:48:39.902Z,73.23
2023-05-18T06:49:39.862Z,70.54
2023-05-18T06:50:39.868Z,75.07
2023-05-18T06:51:39.855Z,74.11
2023-05-18T06:52:39.878Z,68.27
2023-05-18T06:53:39.819Z,66.91
2023-05-18T06:54:39.816Z,66.30
2023-05-18T06:55:39.823Z,66.17
2023-05-18T06:56:39.788Z,68.99
2023-05-18T06:57:39.771Z,68.96
2023-05-18T06:58:39.785Z,66.11
2023-05-18T06:59:39.760Z,63.67
2023-05-18T07:00:39.771Z,61.94
2023-05-18T07:01:39.822Z,63.97
2023-05-18T07:02:39.732Z,63.02
2023-05-18T07:03:39.778Z,63.64
2023-05-18T07:04:39.744Z,63.02
2023-05-18T07:05:39.925Z,63.84
2023-05-18T07:06:39.696Z,60.99
2023-05-18T07:07:39.678Z,60.00
2023-05-18T07:08:39.659Z,61.36
2023-05-18T07:09:39.637Z,63.29
2023-05-18T07:10:39.632Z,65.19
2023-05-18T07:11:39.630Z,62.75
2023-05-18T07:12:39.610Z,63.16
2023-05-18T07:13:39.612Z,62.35
2023-05-18T07:14:39.644Z,63.06
2023-05-18T07:15:39.584Z,63.36
2023-05-18T07:16:39.625Z,61.36
2023-05-18T07:17:39.615Z,61.76
2023-05-18T07:18:39.574Z,63.32
2023-05-18T07:19:39.573Z,62.61
2023-05-18T07:20:39.537Z,63.12
2023-05-18T07:21:39.505Z,62.43
2023-05-18T07:22:46.880Z,62.36
2023-05-18T07:23:39.482Z,63.48
2023-05-18T07:24:40.035Z,63.18
2023-05-18T07:25:39.504Z,64.98
2023-05-18T07:26:39.463Z,64.37
2023-05-18T07:27:39.465Z,64.47
2023-05-18T07:28:40.077Z,63.73
2023-05-18T07:29:39.419Z,65.16
2023-05-18T07:30:39.405Z,63.42
2023-05-18T07:31:39.531Z,64.03
2023-05-18T07:32:39.432Z,65.36
2023-05-18T07:33:41.165Z,63.83
2023-05-18T07:34:39.361Z,63.42
2023-05-18T07:35:39.557Z,63.01
2023-05-18T07:36:39.376Z,64.44
2023-05-18T07:37:39.339Z,64.06
2023-05-18T07:38:39.314Z,63.96
2023-05-18T07:39:39.298Z,65.25
2023-05-18T07:40:39.288Z,64.14
2023-05-18T07:41:39.300Z,63.56
2023-05-18T07:42:39.275Z,63.86
2023-05-18T07:43:39.275Z,63.93
2023-05-18T07:44:39.257Z,62.94
2023-05-18T07:45:39.236Z,65.69
2023-05-18T07:46:39.265Z,66.58
2023-05-18T07:47:39.486Z,67.05
2023-05-18T07:48:40.909Z,63.19
2023-05-18T07:49:39.197Z,62.88
2023-05-18T07:50:39.203Z,62.37
2023-05-18T07:51:39.165Z,64.11
2023-05-18T07:52:39.377Z,60.54
2023-05-18T07:53:39.227Z,60.54
2023-05-18T07:54:39.138Z,62.20
2023-05-18T07:55:39.119Z,61.79
2023-05-18T07:56:39.115Z,65.05
2023-05-18T07:57:39.097Z,65.66
2023-05-18T07:58:39.166Z,62.92
2023-05-18T07:59:39.073Z,62.81
2023-05-18T08:00:39.073Z,64.23
2023-05-18T08:01:39.094Z,65.56
2023-05-18T08:02:39.211Z,61.66
2023-05-18T08:03:39.168Z,59.35
2023-05-18T08:04:39.057Z,59.89
2023-05-18T08:05:39.022Z,62.23
2023-05-18T08:06:38.997Z,65.52
2023-05-18T08:07:39.009Z,65.92
2023-05-18T08:08:39.017Z,64.32
2023-05-18T08:09:38.986Z,65.95
2023-05-18T08:10:38.956Z,67.05
2023-05-18T08:11:38.946Z,65.72
2023-05-18T08:12:38.948Z,62.36
2023-05-18T08:13:38.951Z,64.81
2023-05-18T08:14:38.911Z,65.92
2023-05-18T08:15:38.928Z,65.49
2023-05-18T08:16:38.907Z,66.71
2023-05-18T08:17:38.918Z,61.61
2023-05-18T08:18:38.967Z,62.26
2023-05-18T08:19:41.730Z,64.70
2023-05-18T08:20:38.853Z,67.52
2023-05-18T08:21:38.836Z,63.93
2023-05-18T08:22:38.858Z,62.40
2023-05-18T08:23:38.936Z,63.53
2023-05-18T08:24:38.843Z,63.93
2023-05-18T08:25:38.798Z,65.86
2023-05-18T08:26:38.785Z,64.51
2023-05-18T08:27:38.800Z,62.30
2023-05-18T08:28:38.778Z,61.18
2023-05-18T08:29:38.749Z,63.04
2023-05-18T08:30:38.767Z,61.93
2023-05-18T08:31:38.772Z,63.15
2023-05-18T08:32:38.810Z,65.01
2023-05-18T08:33:38.722Z,63.07
2023-05-18T08:34:38.674Z,62.36
2023-05-18T08:35:38.672Z,63.92
2023-05-18T08:36:38.674Z,65.34
2023-05-18T08:37:38.677Z,65.52
2023-05-18T08:38:38.692Z,64.81
2023-05-18T08:39:38.627Z,64.50
2023-05-18T08:40:38.641Z,64.90
2023-05-18T08:41:38.632Z,64.40
2023-05-18T08:42:49.452Z,64.78
2023-05-18T08:43:39.577Z,65.80
2023-05-18T08:44:38.568Z,64.78
2023-05-18T08:45:38.586Z,64.40
2023-05-18T08:46:38.551Z,64.29
2023-05-18T08:47:38.717Z,66.23
2023-05-18T08:48:38.664Z,66.33
2023-05-18T08:49:38.563Z,65.62
2023-05-18T08:50:38.520Z,61.57
2023-05-18T08:51:38.520Z,63.13
2023-05-18T08:52:38.475Z,65.07
2023-05-18T08:53:38.473Z,67.18
2023-05-18T08:54:38.472Z,65.45
2023-05-18T08:55:38.471Z,63.48
2023-05-18T08:56:38.472Z,62.26
2023-05-18T08:57:38.456Z,61.54
2023-05-18T08:58:38.415Z,63.48
2023-05-18T08:59:38.394Z,62.26
2023-05-18T09:00:38.408Z,62.18
2023-05-18T09:01:38.517Z,62.82
2023-05-18T09:02:38.429Z,63.47
2023-05-18T09:03:38.388Z,63.49
2023-05-18T09:04:38.540Z,62.71
2023-05-18T09:05:38.378Z,64.45
2023-05-18T09:06:38.317Z,65.47
2023-05-18T09:07:38.362Z,67.07
2023-05-18T09:08:38.313Z,66.63
2023-05-18T09:09:38.332Z,67.11
2023-05-18T09:10:38.289Z,67.32
2023-05-18T09:11:38.264Z,63.20
2023-05-18T09:12:38.304Z,64.43
2023-05-18T09:13:38.231Z,65.11
2023-05-18T09:14:38.217Z,63.89
2023-05-18T09:15:38.265Z,63.89
2023-05-18T09:16:38.242Z,64.57
2023-05-18T09:17:38.241Z,64.09
2023-05-18T09:18:38.329Z,65.11
2023-05-18T09:19:38.186Z,61.61
2023-05-18T09:20:38.205Z,61.24
2023-05-18T09:21:38.150Z,61.47
2023-05-18T09:22:38.127Z,62.82
2023-05-18T09:23:38.121Z,62.96
2023-05-18T09:24:38.139Z,63.49
2023-05-18T09:25:38.119Z,63.29
2023-05-18T09:26:38.079Z,65.34
2023-05-18T09:27:38.079Z,64.08
2023-05-18T09:28:38.077Z,63.29
2023-05-18T09:29:38.071Z,65.44
2023-05-18T09:30:38.060Z,65.61
2023-05-18T09:31:38.065Z,66.33
2023-05-18T09:32:38.034Z,64.49
2023-05-18T09:33:38.111Z,65.64
2023-05-18T09:34:38.014Z,65.54
2023-05-18T09:35:37.996Z,64.62
2023-05-18T09:36:37.978Z,64.39
2023-05-18T09:37:38.020Z,65.37
2023-05-18T09:38:37.961Z,63.85
2023-05-18T09:39:37.959Z,63.95
2023-05-18T09:40:37.921Z,64.94
2023-05-18T09:41:37.923Z,66.64
2023-05-18T09:42:37.939Z,65.52
2023-05-18T09:43:37.896Z,63.96
2023-05-18T09:44:37.974Z,62.05
2023-05-18T09:45:37.894Z,62.36
2023-05-18T09:46:37.999Z,62.26
2023-05-18T09:47:37.986Z,62.77
2023-05-18T09:48:37.873Z,64.09
2023-05-18T09:49:37.824Z,60.73
2023-05-18T09:50:37.836Z,60.86
2023-05-18T09:51:37.811Z,61.88
2023-05-18T09:52:37.811Z,61.09
2023-05-18T09:53:37.841Z,62.32
2023-05-18T09:54:37.836Z,60.38
2023-05-18T09:55:37.780Z,62.76
2023-05-18T09:56:37.796Z,64.76
2023-05-18T09:57:37.811Z,65.65
2023-05-18T09:58:37.781Z,62.87
2023-05-18T09:59:37.793Z,64.40
2023-05-18T10:00:37.758Z,65.59
2023-05-18T10:01:37.720Z,62.23
2023-05-18T10:02:37.746Z,60.39
2023-05-18T10:03:37.678Z,60.70
2023-05-18T10:04:37.758Z,63.15
2023-05-18T10:05:37.959Z,63.86
2023-05-18T10:06:37.785Z,62.30
2023-05-18T10:07:37.643Z,64.11
2023-05-18T10:08:37.631Z,65.09
2023-05-18T10:09:37.629Z,63.74
2023-05-18T10:10:37.591Z,64.83
2023-05-18T10:11:37.586Z,63.48
2023-05-18T10:12:37.572Z,60.71
2023-05-18T10:13:37.582Z,60.91
2023-05-18T10:14:37.541Z,60.17
2023-05-18T10:15:37.536Z,58.95
2023-05-18T10:16:37.581Z,59.66
2023-05-18T10:17:37.644Z,56.09
2023-05-18T10:18:37.595Z,57.03
2023-05-18T10:19:37.525Z,56.34
2023-05-18T10:20:37.492Z,59.18
2023-05-18T10:21:37.474Z,57.35
2023-05-18T10:22:37.449Z,57.46
2023-05-18T10:23:37.464Z,59.26
2023-05-18T10:24:37.442Z,58.65
2023-05-18T10:25:37.448Z,58.04
2023-05-18T10:26:37.424Z,58.24
2023-05-18T10:27:37.429Z,57.03
2023-05-18T10:28:37.379Z,59.66
2023-05-18T10:29:37.386Z,58.85
2023-05-18T10:30:37.408Z,57.23
2023-05-18T10:31:37.378Z,55.93
2023-05-18T10:32:37.456Z,56.57
2023-05-18T10:33:37.393Z,58.80
2023-05-18T10:34:37.307Z,57.89
2023-05-18T10:35:37.312Z,57.48
2023-05-18T10:36:37.297Z,57.89
2023-05-18T10:37:37.298Z,57.74
2023-05-18T10:38:37.264Z,59.44
2023-05-18T10:39:37.313Z,60.53
2023-05-18T10:40:37.238Z,58.70
2023-05-18T10:41:37.229Z,56.77
2023-05-18T10:42:37.209Z,57.48
2023-05-18T10:43:37.228Z,57.51
2023-05-18T10:44:37.207Z,60.22
2023-05-18T10:45:37.188Z,58.06
2023-05-18T10:46:37.324Z,57.97
2023-05-18T10:47:37.363Z,59.77
2023-05-18T10:48:37.320Z,57.84
2023-05-18T10:49:37.166Z,56.44
2023-05-18T10:50:37.156Z,56.57
2023-05-18T10:51:37.120Z,58.22
2023-05-18T10:52:37.097Z,58.50
2023-05-18T10:53:37.112Z,61.55
2023-05-18T10:54:37.078Z,59.34
2023-05-18T10:55:37.147Z,59.41
2023-05-18T10:56:37.105Z,59.99
2023-05-18T10:57:37.072Z,59.28
2023-05-18T10:58:37.037Z,60.50
2023-05-18T10:59:37.022Z,58.27
2023-05-18T11:00:37.022Z,56.85
2023-05-18T11:01:37.054Z,57.68
2023-05-18T11:02:37.012Z,61.75
2023-05-18T11:03:36.977Z,59.89
2023-05-18T11:04:37.033Z,58.72
2023-05-18T11:05:36.975Z,58.18
2023-05-18T11:06:36.933Z,59.48
2023-05-18T11:07:36.944Z,55.90
2023-05-18T11:08:36.929Z,56.92
2023-05-18T11:09:36.906Z,55.98
2023-05-18T11:10:36.901Z,57.09
2023-05-18T11:11:36.902Z,54.11
2023-05-18T11:12:36.859Z,56.23
2023-05-18T11:13:36.863Z,57.35
2023-05-18T11:14:36.941Z,55.12
2023-05-18T11:15:36.836Z,56.31
2023-05-18T11:16:36.896Z,55.43
2023-05-18T11:17:37.015Z,56.16
2023-05-18T11:18:36.846Z,57.55
2023-05-18T11:19:36.819Z,56.23
2023-05-18T11:20:36.826Z,56.95
2023-05-18T11:21:36.795Z,56.16
2023-05-18T11:22:36.751Z,55.17
2023-05-18T11:23:36.748Z,54.59
2023-05-18T11:24:36.793Z,54.72
2023-05-18T11:25:36.721Z,55.86
2023-05-18T11:26:36.745Z,59.21
2023-05-18T11:27:36.724Z,60.10
2023-05-18T11:28:36.717Z,60.81
2023-05-18T11:29:36.695Z,57.56
2023-05-18T11:30:36.922Z,58.06
2023-05-18T11:31:36.717Z,58.75
2023-05-18T11:32:36.741Z,59.99
2023-05-18T11:33:36.649Z,59.59
2023-05-18T11:34:39.316Z,59.69
2023-05-18T11:35:36.685Z,57.15
2023-05-18T11:36:36.653Z,58.63
2023-05-18T11:37:36.577Z,58.70
2023-05-18T11:38:36.604Z,56.87
2023-05-18T11:39:42.141Z,56.19
2023-05-18T11:40:37.554Z,57.79
2023-05-18T11:41:36.552Z,59.18
2023-05-18T11:42:36.509Z,57.53
2023-05-18T11:43:36.516Z,59.33
2023-05-18T11:44:36.521Z,60.75
2023-05-18T11:45:36.484Z,62.01
2023-05-18T11:46:36.485Z,59.88
2023-05-18T11:47:36.526Z,58.54
2023-05-18T11:48:36.517Z,58.11
2023-05-18T11:49:36.461Z,54.05
2023-05-18T11:50:36.436Z,56.03
2023-05-18T11:51:36.413Z,54.69
2023-05-18T11:52:36.445Z,56.87
2023-05-18T11:53:36.393Z,57.17
2023-05-18T11:54:36.378Z,55.88
2023-05-18T11:55:36.367Z,57.23
2023-05-18T11:56:36.369Z,56.95
2023-05-18T11:57:36.373Z,59.01
2023-05-18T11:58:36.358Z,61.68
2023-05-18T11:59:36.370Z,60.43
2023-05-18T12:00:36.301Z,57.79
2023-05-18T12:01:36.296Z,59.21
2023-05-18T12:02:37.196Z,59.92
2023-05-18T12:03:36.362Z,59.11
2023-05-18T12:04:36.355Z,57.61
2023-05-18T12:05:36.251Z,57.54
2023-05-18T12:06:36.226Z,58.99
2023-05-18T12:07:36.225Z,60.21
2023-05-18T12:08:36.251Z,59.57
2023-05-18T12:09:36.219Z,58.65
2023-05-18T12:10:36.187Z,60.74
2023-05-18T12:11:36.230Z,60.60
2023-05-18T12:12:36.157Z,60.91
2023-05-18T12:13:36.160Z,60.07
2023-05-18T12:14:36.137Z,57.43
2023-05-18T12:15:36.125Z,57.03
2023-05-18T12:16:36.173Z,58.27
2023-05-18T12:17:36.155Z,59.28
2023-05-18T12:18:36.235Z,60.60
2023-05-18T12:19:36.095Z,60.78
2023-05-18T12:20:36.059Z,58.04
2023-05-18T12:21:36.060Z,59.53
2023-05-18T12:22:36.097Z,61.53
2023-05-18T12:23:36.047Z,58.49
2023-05-18T12:24:36.062Z,61.83
2023-05-18T12:25:36.020Z,56.46
2023-05-18T12:26:35.995Z,58.31
2023-05-18T12:27:36.009Z,57.30
2023-05-18T12:28:36.003Z,58.52
2023-05-18T12:29:35.990Z,60.01
2023-05-18T12:30:36.577Z,60.31
2023-05-18T12:31:36.049Z,57.65
2023-05-18T12:32:35.956Z,57.22
2023-05-18T12:33:35.916Z,56.18
2023-05-18T12:34:35.943Z,53.72
2023-05-18T12:35:36.272Z,55.24
2023-05-18T12:36:35.907Z,57.17
2023-05-18T12:37:44.749Z,59.06
2023-05-18T12:38:36.905Z,57.62
2023-05-18T12:39:35.849Z,57.42
2023-05-18T12:40:35.889Z,58.09
2023-05-18T12:41:35.850Z,56.98
2023-05-18T12:42:35.816Z,58.91
2023-05-18T12:43:35.845Z,59.48
2023-05-18T12:44:35.832Z,56.52
2023-05-18T12:45:35.924Z,56.73
2023-05-18T12:46:35.874Z,54.56
2023-05-18T12:47:35.788Z,56.38
2023-05-18T12:48:35.764Z,55.19
2023-05-18T12:49:35.773Z,55.52
2023-05-18T12:50:35.747Z,55.32
2023-05-18T12:51:35.727Z,55.80
2023-05-18T12:52:35.720Z,54.05